createdAt,value
2023-04-02T00:02:35.297Z,6.33
2023-04-02T00:28:24.205Z,5.87
2023-04-02T00:48:39.085Z,6.47
2023-04-02T01:18:58.302Z,6.50
2023-04-02T01:43:51.603Z,7.57
2023-04-02T02:04:30.277Z,8.63
2023-04-02T02:35:06.793Z,5.87
2023-04-02T03:00:20.432Z,5.67
2023-04-02T03:45:39.959Z,5.97
2023-04-02T04:16:01.558Z,7.20
2023-04-02T04:41:31.670Z,12.20
2023-04-02T05:02:21.478Z,13.03
2023-04-02T05:06:41.888Z,13.70
2023-04-02T05:22:29.915Z,13.27
2023-04-02T05:47:44.921Z,14.87
2023-04-02T06:43:33.589Z,9.27
2023-04-02T07:13:36.446Z,7.40
2023-04-02T07:34:13.283Z,7.73
2023-04-02T08:14:34.159Z,8.10
2023-04-02T08:45:21.193Z,6.87
2023-04-02T09:51:23.705Z,4.60
2023-04-02T10:16:33.022Z,4.00
2023-04-02T11:52:54.916Z,8.63
2023-04-02T12:23:24.180Z,7.70
2023-04-02T12:48:41.017Z,7.17
2023-04-02T13:24:18.302Z,5.47
2023-04-02T13:59:09.144Z,4.20
2023-04-02T14:25:08.389Z,4.30
2023-04-02T14:55:38.368Z,4.67
2023-04-02T15:25:40.850Z,4.30
2023-04-02T15:55:49.028Z,5.23
2023-04-02T16:16:32.982Z,5.90
2023-04-02T16:46:39.315Z,6.13
2023-04-02T17:07:28.907Z,6.60
2023-04-02T17:32:31.718Z,6.00
2023-04-02T18:03:01.644Z,5.87
2023-04-02T18:38:20.764Z,6.43
2023-04-02T19:28:53.068Z,9.10
2023-04-02T19:54:31.918Z,4.43
2023-04-02T20:55:39.887Z,2.10
2023-04-02T21:25:39.707Z,1.97
2023-04-02T23:37:13.719Z,1.90
